createdAt,value
2022-10-13T00:00:57.821Z,28.70
2022-10-13T00:03:25.106Z,27.95
2022-10-13T00:05:52.158Z,24.92
2022-10-13T00:08:21.614Z,25.17
2022-10-13T00:10:50.727Z,24.45
2022-10-13T00:13:20.810Z,28.45
2022-10-13T00:15:48.238Z,28.23
2022-10-13T00:18:16.075Z,29.17
2022-10-13T00:20:48.067Z,26.98
2022-10-13T00:23:15.593Z,27.45
2022-10-13T00:25:47.497Z,30.67
2022-10-13T00:28:15.321Z,30.63
2022-10-13T00:30:43.031Z,32.83
2022-10-13T00:33:13.077Z,29.30
2022-10-13T00:35:45.082Z,30.05
2022-10-13T00:38:15.702Z,28.85
2022-10-13T00:40:54.447Z,33.00
2022-10-13T00:43:25.032Z,29.58
2022-10-13T00:45:53.009Z,35.15
2022-10-13T00:48:30.343Z,35.50
2022-10-13T00:50:58.486Z,32.00
2022-10-13T00:53:30.579Z,28.35
2022-10-13T00:55:57.231Z,31.42
2022-10-13T00:58:26.114Z,28.85
2022-10-13T01:00:53.312Z,30.25
2022-10-13T01:03:21.151Z,30.50
2022-10-13T01:05:50.209Z,33.05
2022-10-13T01:08:18.724Z,36.88
2022-10-13T01:11:03.466Z,31.60
2022-10-13T01:13:43.616Z,33.30
2022-10-13T01:16:17.671Z,30.10
2022-10-13T01:18:59.798Z,31.13
2022-10-13T01:21:44.769Z,31.88
2022-10-13T01:24:39.240Z,32.15
2022-10-13T01:27:24.706Z,31.17
2022-10-13T01:30:05.801Z,33.58
2022-10-13T01:32:36.730Z,31.48
2022-10-13T01:35:31.174Z,30.30
2022-10-13T01:38:03.556Z,30.30
2022-10-13T01:40:46.369Z,29.08
2022-10-13T01:43:20.034Z,31.38
2022-10-13T01:46:00.392Z,32.42
2022-10-13T01:48:28.668Z,30.58
2022-10-13T01:50:58.349Z,30.92
2022-10-13T01:53:25.975Z,32.05
2022-10-13T01:55:59.528Z,32.65
2022-10-13T01:58:29.823Z,32.90
2022-10-13T02:01:21.899Z,32.70
2022-10-13T02:04:03.108Z,35.03
2022-10-13T02:06:57.752Z,33.72
2022-10-13T02:09:30.577Z,33.58
2022-10-13T02:12:07.030Z,33.25
2022-10-13T02:14:38.187Z,32.00
2022-10-13T02:17:05.608Z,35.45
2022-10-13T02:19:37.465Z,34.63
2022-10-13T02:22:05.895Z,38.65
2022-10-13T02:24:33.103Z,32.65
2022-10-13T02:27:00.016Z,32.13
2022-10-13T02:29:26.778Z,32.25
2022-10-13T02:31:54.753Z,38.00
2022-10-13T02:34:21.440Z,35.53
2022-10-13T02:36:48.303Z,32.13
2022-10-13T02:39:15.540Z,33.20
2022-10-13T02:41:42.141Z,32.90
2022-10-13T02:44:09.024Z,32.38
2022-10-13T02:46:41.055Z,36.10
2022-10-13T02:49:07.741Z,36.15
2022-10-13T02:51:39.669Z,38.75
2022-10-13T02:54:07.092Z,35.78
2022-10-13T02:56:33.804Z,37.50
2022-10-13T02:59:00.439Z,37.78
2022-10-13T03:01:27.143Z,37.00
2022-10-13T03:03:54.009Z,39.22
2022-10-13T03:06:20.920Z,36.38
2022-10-13T03:08:48.054Z,39.95
2022-10-13T03:11:14.742Z,45.15
2022-10-13T03:13:41.495Z,37.60
2022-10-13T03:16:08.762Z,39.42
2022-10-13T03:18:35.413Z,36.25
2022-10-13T03:21:07.022Z,41.60
2022-10-13T03:23:36.891Z,39.95
2022-10-13T03:26:04.465Z,41.45
2022-10-13T03:28:31.385Z,39.13
2022-10-13T03:31:07.379Z,41.72
2022-10-13T03:33:34.170Z,40.03
2022-10-13T03:36:02.208Z,38.58
2022-10-13T03:38:33.658Z,42.33
2022-10-13T03:41:08.838Z,40.67
2022-10-13T03:43:36.268Z,39.47
2022-10-13T03:46:05.845Z,37.60
2022-10-13T03:48:34.401Z,39.47
2022-10-13T03:51:08.646Z,39.30
2022-10-13T03:53:35.683Z,37.75
2022-10-13T03:56:03.192Z,45.35
2022-10-13T03:58:33.769Z,44.47
2022-10-13T04:01:06.870Z,44.65
2022-10-13T04:03:34.287Z,44.65
2022-10-13T04:06:02.560Z,44.70
2022-10-13T04:08:30.867Z,39.90
2022-10-13T04:11:02.921Z,41.70
2022-10-13T04:13:29.789Z,42.40
2022-10-13T04:15:56.492Z,43.97
2022-10-13T04:18:23.164Z,41.63
2022-10-13T04:20:50.134Z,42.53
2022-10-13T04:23:16.812Z,41.95
2022-10-13T04:25:47.567Z,43.08
2022-10-13T04:28:14.359Z,43.78
2022-10-13T04:30:43.711Z,45.30
2022-10-13T04:33:13.785Z,43.33
2022-10-13T04:35:43.420Z,46.10
2022-10-13T04:38:10.088Z,45.55
2022-10-13T04:40:36.715Z,42.97
2022-10-13T04:43:03.594Z,44.75
2022-10-13T04:45:30.382Z,41.20
2022-10-13T04:47:57.232Z,41.28
2022-10-13T04:50:23.848Z,41.25
2022-10-13T04:52:59.159Z,42.80
2022-10-13T04:55:25.856Z,42.13
2022-10-13T04:57:52.496Z,42.63
2022-10-13T05:00:19.316Z,41.75
2022-10-13T05:02:46.100Z,42.80
2022-10-13T05:05:12.802Z,41.10
2022-10-13T05:07:39.427Z,41.50
2022-10-13T05:10:06.260Z,43.58
2022-10-13T05:12:33.009Z,43.35
2022-10-13T05:14:59.717Z,39.75
2022-10-13T05:17:26.369Z,42.53
2022-10-13T05:19:53.002Z,40.03
2022-10-13T05:22:19.843Z,41.75
2022-10-13T05:24:47.288Z,42.10
2022-10-13T05:27:14.186Z,40.28
2022-10-13T05:29:41.162Z,39.47
2022-10-13T05:32:08.397Z,42.35
2022-10-13T05:34:35.124Z,42.03
2022-10-13T05:37:02.016Z,39.75
2022-10-13T05:39:28.738Z,39.65
2022-10-13T05:41:55.373Z,41.35
2022-10-13T05:44:22.144Z,39.20
2022-10-13T05:46:55.524Z,39.22
2022-10-13T05:49:22.585Z,41.08
2022-10-13T05:51:52.712Z,41.13
2022-10-13T05:54:25.949Z,39.03
2022-10-13T05:57:32.407Z,39.30
2022-10-13T06:00:11.387Z,39.15
2022-10-13T06:02:56.272Z,40.35
2022-10-13T06:05:25.839Z,39.92
2022-10-13T06:07:53.759Z,40.72
2022-10-13T06:10:20.710Z,41.33
2022-10-13T06:12:47.701Z,40.75
2022-10-13T06:15:14.402Z,42.50
2022-10-13T06:17:41.083Z,37.70
2022-10-13T06:20:08.881Z,42.53
2022-10-13T06:22:38.830Z,39.25
2022-10-13T06:25:07.188Z,37.95
2022-10-13T06:27:34.455Z,39.60
2022-10-13T06:30:01.134Z,38.72
2022-10-13T06:32:29.792Z,38.45
2022-10-13T06:34:56.394Z,33.88
2022-10-13T06:37:27.172Z,43.67
2022-10-13T06:39:54.299Z,38.25
2022-10-13T06:42:21.483Z,39.28
2022-10-13T06:45:05.081Z,35.95
2022-10-13T06:47:31.713Z,37.08
2022-10-13T06:49:58.361Z,47.45
2022-10-13T06:52:25.105Z,35.03
2022-10-13T06:54:51.732Z,30.45
2022-10-13T06:57:18.372Z,32.28
2022-10-13T06:59:45.091Z,28.88
2022-10-13T07:02:11.911Z,29.83
2022-10-13T07:04:38.603Z,27.52
2022-10-13T07:07:05.210Z,27.00
2022-10-13T07:09:31.920Z,27.33
2022-10-13T07:11:59.379Z,26.95
2022-10-13T07:14:26.259Z,26.55
2022-10-13T07:16:53.309Z,24.00
2022-10-13T07:19:20.044Z,27.40
2022-10-13T07:21:46.744Z,27.45
2022-10-13T07:24:13.408Z,26.05
2022-10-13T07:26:40.101Z,27.60
2022-10-13T07:29:07.933Z,28.13
2022-10-13T07:31:34.639Z,28.33
2022-10-13T07:34:01.668Z,29.25
2022-10-13T07:36:28.553Z,27.27
2022-10-13T07:38:55.186Z,28.02
2022-10-13T07:41:21.829Z,26.23
2022-10-13T07:43:48.481Z,28.30
2022-10-13T07:46:16.290Z,29.25
2022-10-13T07:48:43.021Z,27.17
2022-10-13T07:51:12.833Z,25.33
2022-10-13T07:53:42.972Z,24.63
2022-10-13T07:56:11.962Z,23.65
2022-10-13T07:58:40.174Z,23.15
2022-10-13T08:01:07.099Z,23.75
2022-10-13T08:03:44.190Z,23.30
2022-10-13T08:06:16.784Z,22.25
2022-10-13T08:08:43.404Z,23.38
2022-10-13T08:11:16.478Z,22.83
2022-10-13T08:13:50.458Z,22.95
2022-10-13T08:16:23.560Z,23.10
2022-10-13T08:18:50.496Z,23.13
2022-10-13T08:24:14.487Z,25.85
2022-10-13T08:26:42.127Z,23.70
2022-10-13T08:29:21.344Z,23.17
2022-10-13T08:34:23.505Z,23.50
2022-10-13T08:36:55.173Z,22.80
2022-10-13T08:39:25.348Z,23.10
2022-10-13T08:41:52.830Z,21.58
2022-10-13T08:45:10.958Z,22.80
2022-10-13T08:47:26.769Z,23.45
2022-10-13T08:50:02.920Z,24.20
2022-10-13T08:52:43.230Z,29.05
2022-10-13T08:55:38.844Z,25.70
2022-10-13T08:58:14.536Z,25.67
2022-10-13T09:00:41.694Z,24.45
2022-10-13T09:03:23.696Z,27.23
2022-10-13T09:05:58.569Z,25.75
2022-10-13T09:08:29.210Z,23.63
2022-10-13T09:10:55.873Z,24.30
2022-10-13T09:13:25.777Z,26.67
2022-10-13T09:15:53.936Z,24.58
2022-10-13T09:18:28.982Z,25.50
2022-10-13T09:23:42.247Z,27.05
2022-10-13T09:26:15.610Z,26.65
2022-10-13T09:28:42.564Z,26.50
2022-10-13T09:31:17.507Z,26.30
2022-10-13T09:33:45.778Z,27.25
2022-10-13T09:36:15.404Z,26.25
2022-10-13T09:39:06.611Z,26.52
2022-10-13T09:41:35.225Z,27.13
2022-10-13T09:44:12.040Z,27.42
2022-10-13T09:46:51.555Z,27.40
2022-10-13T09:49:41.312Z,26.33
2022-10-13T09:52:16.814Z,25.67
2022-10-13T09:55:13.424Z,27.05
2022-10-13T09:57:47.507Z,28.77
2022-10-13T10:00:21.735Z,28.35
2022-10-13T10:03:18.402Z,27.30
2022-10-13T10:05:55.344Z,26.98
2022-10-13T10:09:03.687Z,27.05
2022-10-13T10:11:38.272Z,26.55
2022-10-13T10:14:14.268Z,26.08
2022-10-13T10:16:58.126Z,27.08
2022-10-13T10:19:43.501Z,27.88
2022-10-13T10:24:55.295Z,25.27
2022-10-13T10:27:29.523Z,25.33
2022-10-13T10:30:05.646Z,25.52
2022-10-13T10:33:09.489Z,25.90
2022-10-13T10:36:05.532Z,25.48
2022-10-13T10:38:43.961Z,24.45
2022-10-13T10:41:38.124Z,25.00
2022-10-13T10:44:10.032Z,24.52
2022-10-13T10:46:42.159Z,23.30
2022-10-13T10:49:33.448Z,23.33
2022-10-13T10:52:05.778Z,24.20
2022-10-13T10:54:46.466Z,24.77
2022-10-13T10:57:33.400Z,23.85
2022-10-13T11:00:15.069Z,22.92
2022-10-13T11:03:07.819Z,22.60
2022-10-13T11:06:00.710Z,23.52
2022-10-13T11:08:28.635Z,24.25
2022-10-13T11:11:24.746Z,24.17
2022-10-13T11:13:55.369Z,24.00
2022-10-13T11:16:39.110Z,23.90
2022-10-13T11:19:37.916Z,23.95
2022-10-13T11:22:05.151Z,23.88
2022-10-13T11:24:42.305Z,22.88
2022-10-13T11:27:40.065Z,23.50
2022-10-13T11:32:56.816Z,22.63
2022-10-13T11:35:26.130Z,22.33
2022-10-13T11:38:07.209Z,23.35
2022-10-13T11:41:05.603Z,23.73
2022-10-13T11:44:14.337Z,24.05
2022-10-13T11:47:05.041Z,23.10
2022-10-13T11:50:02.159Z,23.55
2022-10-13T11:52:53.937Z,24.45
2022-10-13T11:55:45.674Z,23.60
2022-10-13T11:58:28.970Z,23.90
2022-10-13T12:01:06.649Z,23.45
2022-10-13T12:03:36.822Z,23.88
2022-10-13T12:06:07.689Z,24.92
2022-10-13T12:08:36.935Z,24.90
2022-10-13T12:11:07.445Z,24.10
2022-10-13T12:13:37.713Z,23.55
2022-10-13T12:16:06.500Z,24.58
2022-10-13T12:18:38.997Z,24.35
2022-10-13T12:21:17.325Z,24.52
2022-10-13T12:23:44.197Z,24.48
2022-10-13T12:26:19.481Z,24.17
2022-10-13T12:28:51.267Z,24.60
2022-10-13T12:31:24.582Z,24.80
2022-10-13T12:33:56.269Z,23.77
2022-10-13T12:36:30.071Z,24.00
2022-10-13T12:39:01.445Z,24.60
2022-10-13T12:41:31.632Z,25.27
2022-10-13T12:44:01.157Z,25.20
2022-10-13T12:46:42.790Z,29.25
2022-10-13T12:49:16.112Z,25.65
2022-10-13T12:51:50.339Z,25.73
2022-10-13T12:54:24.270Z,26.37
2022-10-13T12:56:55.405Z,24.73
2022-10-13T12:59:24.542Z,24.75
2022-10-13T13:02:03.883Z,24.23
2022-10-13T13:04:43.194Z,24.20
2022-10-13T13:07:29.945Z,25.10
2022-10-13T13:10:08.795Z,30.05
2022-10-13T13:12:37.835Z,25.48
2022-10-13T13:15:19.269Z,26.00
2022-10-13T13:17:57.832Z,25.70
2022-10-13T13:20:32.125Z,24.80
2022-10-13T13:22:59.620Z,25.83
2022-10-13T13:25:26.982Z,25.15
2022-10-13T13:27:54.152Z,26.17
2022-10-13T13:30:22.712Z,24.60
2022-10-13T13:32:49.934Z,25.10
2022-10-13T13:35:16.848Z,25.10
2022-10-13T13:37:49.703Z,25.90
2022-10-13T13:40:25.112Z,26.10
2022-10-13T13:42:52.345Z,24.80
2022-10-13T13:45:21.683Z,24.65
2022-10-13T13:47:49.495Z,25.20
2022-10-13T13:50:23.582Z,24.77
2022-10-13T13:52:56.485Z,25.05
2022-10-13T13:55:23.450Z,25.45
2022-10-13T13:57:50.099Z,25.65
2022-10-13T14:00:17.260Z,26.55
2022-10-13T14:02:47.219Z,25.15
2022-10-13T14:05:14.988Z,27.20
2022-10-13T14:07:41.688Z,27.30
2022-10-13T14:10:09.122Z,26.17
2022-10-13T14:12:36.626Z,26.83
2022-10-13T14:15:03.883Z,26.52
2022-10-13T14:17:33.044Z,26.38
2022-10-13T14:20:00.576Z,28.42
2022-10-13T14:22:27.474Z,26.27
2022-10-13T14:24:54.282Z,27.58
2022-10-13T14:27:23.118Z,33.45
2022-10-13T14:29:49.746Z,27.73
2022-10-13T14:32:16.591Z,26.05
2022-10-13T14:34:43.185Z,24.92
2022-10-13T14:37:09.790Z,24.85
2022-10-13T14:39:36.461Z,24.98
2022-10-13T14:42:03.208Z,26.40
2022-10-13T14:44:29.827Z,28.20
2022-10-13T14:46:56.551Z,26.40
2022-10-13T14:49:23.719Z,25.98
2022-10-13T14:51:50.506Z,24.38
2022-10-13T14:54:17.992Z,24.80
2022-10-13T14:56:44.832Z,26.00
2022-10-13T14:59:12.445Z,25.65
2022-10-13T15:01:41.394Z,24.35
2022-10-13T15:04:08.362Z,25.25
2022-10-13T15:06:35.659Z,24.02
2022-10-13T15:09:02.321Z,25.40
2022-10-13T15:11:29.042Z,25.38
2022-10-13T15:13:56.367Z,27.30
2022-10-13T15:16:26.113Z,23.98
2022-10-13T15:18:52.796Z,24.70
2022-10-13T15:21:19.965Z,23.92
2022-10-13T15:23:47.117Z,26.88
2022-10-13T15:26:16.129Z,26.35
2022-10-13T15:28:45.726Z,26.88
2022-10-13T15:31:14.197Z,27.45
2022-10-13T15:33:46.209Z,34.45
2022-10-13T15:36:13.043Z,25.88
2022-10-13T15:38:40.190Z,25.95
2022-10-13T15:41:07.081Z,26.55
2022-10-13T15:43:34.500Z,27.13
2022-10-13T15:46:07.959Z,26.95
2022-10-13T15:48:35.236Z,25.52
2022-10-13T15:51:02.099Z,26.50
2022-10-13T15:53:29.839Z,28.02
2022-10-13T15:55:56.455Z,30.33
2022-10-13T15:58:23.096Z,25.67
2022-10-13T16:00:49.765Z,25.65
2022-10-13T16:03:18.431Z,28.13
2022-10-13T16:05:46.298Z,25.13
2022-10-13T16:08:14.091Z,25.20
2022-10-13T16:10:42.090Z,23.77
2022-10-13T16:13:12.196Z,23.88
2022-10-13T16:15:38.918Z,23.60
2022-10-13T16:18:05.780Z,23.70
2022-10-13T16:20:35.009Z,22.50
2022-10-13T16:23:01.762Z,24.65
2022-10-13T16:25:29.231Z,24.27
2022-10-13T16:27:56.447Z,24.83
2022-10-13T16:30:23.154Z,25.30
2022-10-13T16:32:49.824Z,25.33
2022-10-13T16:35:16.470Z,26.17
2022-10-13T16:37:43.155Z,24.92
2022-10-13T16:40:10.242Z,23.70
2022-10-13T16:42:37.988Z,26.85
2022-10-13T16:45:05.301Z,32.60
2022-10-13T16:47:31.936Z,35.50
2022-10-13T16:49:58.556Z,41.47
2022-10-13T16:52:25.219Z,37.22
2022-10-13T16:54:52.191Z,35.45
2022-10-13T16:57:19.180Z,32.58
2022-10-13T16:59:49.002Z,30.10
2022-10-13T17:02:15.709Z,29.02
2022-10-13T17:04:43.072Z,28.33
2022-10-13T17:07:09.818Z,28.52
2022-10-13T17:09:36.463Z,29.83
2022-10-13T17:12:04.068Z,79.32
2022-10-13T17:14:30.959Z,67.40
2022-10-13T17:16:58.263Z,37.35
2022-10-13T17:19:25.911Z,36.17
2022-10-13T17:21:52.592Z,35.03
2022-10-13T17:24:19.244Z,33.08
2022-10-13T17:26:46.002Z,34.67
2022-10-13T17:29:12.678Z,29.33
2022-10-13T17:31:39.292Z,34.05
2022-10-13T17:34:06.234Z,32.17
2022-10-13T17:36:33.949Z,32.85
2022-10-13T17:41:39.636Z,29.40
2022-10-13T17:44:06.323Z,28.02
2022-10-13T17:46:38.367Z,28.83
2022-10-13T17:49:09.093Z,30.23
2022-10-13T17:51:35.787Z,29.13
2022-10-13T17:54:03.301Z,32.75
2022-10-13T17:56:30.073Z,33.55
2022-10-13T17:58:56.801Z,33.92
2022-10-13T18:01:29.176Z,36.50
2022-10-13T18:03:58.006Z,36.78
2022-10-13T18:06:35.156Z,35.28
2022-10-13T18:09:10.696Z,38.83
2022-10-13T18:11:38.388Z,35.63
2022-10-13T18:14:05.941Z,34.25
2022-10-13T18:16:33.004Z,36.60
2022-10-13T18:18:59.673Z,34.05
2022-10-13T18:21:26.725Z,36.28
2022-10-13T18:23:55.704Z,38.00
2022-10-13T18:26:23.542Z,34.38
2022-10-13T18:28:50.648Z,31.08
2022-10-13T18:31:23.328Z,31.58
2022-10-13T18:33:55.776Z,32.92
2022-10-13T18:36:23.838Z,33.78
2022-10-13T18:38:51.290Z,31.60
2022-10-13T18:41:20.379Z,35.90
2022-10-13T18:43:50.624Z,35.63
2022-10-13T18:46:18.856Z,35.90
2022-10-13T18:48:48.017Z,51.65
2022-10-13T18:51:17.182Z,42.70
2022-10-13T18:53:46.740Z,42.47
2022-10-13T18:56:13.683Z,43.17
2022-10-13T18:58:40.609Z,95.20
2022-10-13T19:01:10.575Z,49.90
2022-10-13T19:03:39.292Z,38.40
2022-10-13T19:06:08.263Z,34.08
2022-10-13T19:08:36.455Z,34.30
2022-10-13T19:11:15.547Z,35.38
2022-10-13T19:13:42.619Z,34.05
2022-10-13T19:16:09.915Z,36.50
2022-10-13T19:18:36.950Z,36.53
2022-10-13T19:21:03.914Z,35.42
2022-10-13T19:23:30.725Z,36.03
2022-10-13T19:26:11.153Z,34.75
2022-10-13T19:28:41.085Z,36.28
2022-10-13T19:31:16.382Z,34.00
2022-10-13T19:33:44.959Z,35.47
2022-10-13T19:36:22.890Z,37.83
2022-10-13T19:38:50.760Z,35.25
2022-10-13T19:41:19.566Z,36.08
2022-10-13T19:43:46.194Z,37.13
2022-10-13T19:46:12.869Z,36.70
2022-10-13T19:48:39.515Z,37.22
2022-10-13T19:51:08.998Z,38.55
2022-10-13T19:53:37.038Z,38.67
2022-10-13T19:56:04.669Z,35.65
2022-10-13T19:58:31.774Z,37.10
2022-10-13T20:01:05.321Z,37.63
2022-10-13T20:03:32.295Z,38.70
2022-10-13T20:05:58.944Z,35.88
2022-10-13T20:08:25.858Z,36.42
2022-10-13T20:10:52.478Z,36.00
2022-10-13T20:13:19.161Z,36.03
2022-10-13T20:15:47.804Z,35.55
2022-10-13T20:18:14.479Z,38.08
2022-10-13T20:20:41.901Z,36.60
2022-10-13T20:23:09.085Z,36.75
2022-10-13T20:25:38.903Z,36.88
2022-10-13T20:28:06.438Z,37.03
2022-10-13T20:30:33.517Z,37.42
2022-10-13T20:33:00.732Z,36.13
2022-10-13T20:35:27.675Z,38.55
2022-10-13T20:37:54.380Z,38.45
2022-10-13T20:40:21.240Z,36.58
2022-10-13T20:42:54.407Z,36.78
2022-10-13T20:45:21.105Z,38.80
2022-10-13T20:47:48.592Z,39.00
2022-10-13T20:50:15.492Z,40.17
2022-10-13T20:52:42.155Z,40.53
2022-10-13T20:55:09.280Z,47.83
2022-10-13T20:57:36.842Z,41.72
2022-10-13T21:00:05.271Z,41.15
2022-10-13T21:02:32.402Z,41.45
2022-10-13T21:04:58.993Z,43.90
2022-10-13T21:07:25.660Z,41.40
2022-10-13T21:09:55.291Z,42.40
2022-10-13T21:12:21.947Z,42.22
2022-10-13T21:14:48.679Z,40.72
2022-10-13T21:17:15.308Z,41.97
2022-10-13T21:19:41.902Z,42.60
2022-10-13T21:22:08.542Z,42.50
2022-10-13T21:24:35.469Z,44.47
2022-10-13T21:27:02.114Z,49.40
2022-10-13T21:29:28.947Z,46.40
2022-10-13T21:31:55.554Z,46.25
2022-10-13T21:34:22.182Z,46.58
2022-10-13T21:36:48.807Z,44.97
2022-10-13T21:39:15.482Z,49.53
2022-10-13T21:41:42.179Z,48.75
2022-10-13T21:44:13.510Z,50.90
2022-10-13T21:46:40.285Z,49.47
2022-10-13T21:49:06.996Z,49.63
2022-10-13T21:51:39.369Z,51.25
2022-10-13T21:54:08.806Z,48.47
2022-10-13T21:56:36.598Z,50.15
2022-10-13T21:59:04.225Z,53.97
2022-10-13T22:01:31.019Z,51.92
2022-10-13T22:04:00.592Z,54.60
2022-10-13T22:06:29.017Z,53.15
2022-10-13T22:08:57.492Z,55.70
2022-10-13T22:11:26.606Z,53.95
2022-10-13T22:13:55.277Z,54.78
2022-10-13T22:16:25.095Z,53.88
2022-10-13T22:18:52.745Z,54.88
2022-10-13T22:21:22.129Z,55.53
2022-10-13T22:23:49.390Z,55.55
2022-10-13T22:26:17.934Z,58.45
2022-10-13T22:28:48.070Z,57.80
2022-10-13T22:31:14.951Z,56.63
2022-10-13T22:33:42.840Z,57.83
2022-10-13T22:36:11.915Z,61.80
2022-10-13T22:38:39.638Z,57.45
2022-10-13T22:41:08.421Z,61.95
2022-10-13T22:43:36.431Z,60.47
2022-10-13T22:46:17.689Z,58.60
2022-10-13T22:48:44.653Z,50.58
2022-10-13T22:51:20.266Z,58.88
2022-10-13T22:53:50.437Z,57.40
2022-10-13T22:56:20.358Z,53.75
2022-10-13T22:58:51.718Z,52.70
2022-10-13T23:01:19.371Z,47.92
2022-10-13T23:03:51.113Z,47.35
2022-10-13T23:06:20.857Z,46.72
2022-10-13T23:08:50.197Z,45.88
2022-10-13T23:11:17.580Z,46.80
2022-10-13T23:13:44.628Z,48.67
2022-10-13T23:16:18.046Z,47.05
2022-10-13T23:18:45.053Z,48.90
2022-10-13T23:21:26.676Z,47.58
2022-10-13T23:23:58.332Z,49.95
2022-10-13T23:26:25.758Z,46.35
2022-10-13T23:28:54.846Z,48.03
2022-10-13T23:31:21.614Z,46.88
2022-10-13T23:33:48.572Z,47.50
2022-10-13T23:36:18.169Z,49.25
2022-10-13T23:38:48.515Z,49.53
2022-10-13T23:41:16.498Z,47.20
2022-10-13T23:43:43.267Z,48.20
2022-10-13T23:46:10.906Z,48.03
2022-10-13T23:48:38.762Z,50.35
2022-10-13T23:51:11.572Z,48.63
2022-10-13T23:53:38.889Z,48.20
2022-10-13T23:56:07.277Z,51.00
2022-10-13T23:58:36.532Z,51.55
